Flag for Australia

Past Weather in 38°08'31.8"S, 144°21'41.5"E, Australia — Yesterday and Last 2 Weeks

Currently: 65 °F. Mild. (Weather station: Geelong Airport Aws, Australia). See more current weather

Past Weather in 38°08'31.8"S, 144°21'41.5"E — Graph

°F

38°08'31.8"S, 144°21'41.5"E Temperature Yesterday

Maximum temperature yesterday: 68 °F (at 3:00 pm)
Minimum temperature yesterday: 56 °F (at 11:00 pm)
Average temperature yesterday: 62 °F

High & Low Weather Summary for the Past Weeks

 TemperatureHumidityPressure
High103 °F (Feb 22, 4:00 pm)93% (Feb 25, 6:00 am)30.33 "Hg (Feb 25, 6:00 am)
Low46 °F (Feb 15, 7:00 am)18% (Feb 13, 2:00 pm)29.47 "Hg (Feb 13, 3:00 pm)
Average68 °F65%30.02 "Hg
* Reported Feb 10 9:00 am — Feb 25 9:00 am, 38°08'31.8"S, 144°21'41.5"E. Weather by CustomWeather, © 2024

Note: Actual official high and low records may vary slightly from our data, if they occured in-between our weather recording intervals... More about our weather records

38°08'31.8"S, 144°21'41.5"E Weather History for the Previous 24 Hours

Scroll right to see more
 ConditionsComfort  
Time TempWeatherWind HumidityBarometerVisibility
9:00 am
Sun, Feb 25
58 °FCool.No wind78%30.00 "HgN/A
8:00 am52 °FCool.3 mph91%29.99 "HgN/A
7:00 am51 °FCool.3 mph93%29.98 "HgN/A
6:00 am50 °FCool.No wind93%29.98 "HgN/A
5:00 am50 °FCool.2 mph91%29.98 "HgN/A
4:00 am51 °FCool.No wind91%29.98 "HgN/A
3:00 am51 °FCool.1 mph90%30.00 "HgN/A
2:00 am53 °FCool.No wind88%30.02 "HgN/A
1:00 am53 °FCool.2 mph88%30.06 "HgN/A
12:00 am55 °FCool.No wind81%30.06 "HgN/A
11:00 pm
Sat, Feb 24
56 °FCool.No wind78%30.09 "HgN/A
10:00 pm58 °FCool.No wind76%30.10 "HgN/A
9:00 pm60 °FCool.2 mph70%30.11 "HgN/A
8:00 pm62 °FCool.7 mph64%30.10 "HgN/A
7:00 pm64 °FMild.8 mph59%30.10 "HgN/A
6:00 pm66 °FMild.9 mph54%30.10 "HgN/A
5:00 pm67 °FMild.10 mph52%30.11 "HgN/A
4:00 pm67 °FMild.12 mph52%30.11 "HgN/A
3:00 pm68 °FMild.9 mph49%30.14 "HgN/A
2:00 pm68 °FMild.9 mph51%30.14 "HgN/A
1:00 pm68 °FMild.9 mph52%30.15 "HgN/A
12:00 pm67 °FMild.9 mph53%30.16 "HgN/A
11:00 am65 °FMild.9 mph56%30.16 "HgN/A
10:00 am64 °FMild.9 mph58%30.15 "HgN/A
Weather by CustomWeather, © 2024

See weather overview